Airfield :
LOGIN :

Register | Disclaimer

   EN    FR    IT 

 










Legend :    VFR   Marginal VFR   IFR   Intensive IFR   Very Intensive IFR
Visi :
Ceiling :
>= 8 km
>= 3000ft
5 to 8 km
1000 to 3000 ft
1500m to 5 km
500 to 1000 ft
800 to 1500m
200 to 500 ft
< 800m
< 200 ft
Symbols :   Thunderstorms  Fog  Heavy snow  Heavy precipitations  Wind > 20 kt
SIGMETs :     Misc.  Thunderstorms  Icing  Turbulence  Mountain Waves  Volcanic Ashes






- Airport Elevation : 285 ft
- IATA code : GOZ


LBGO - Gorna Oryahovitsa

CURRENT METAR :
  • 300630Z AUTO 28018KT 9999 NCD 16/07 Q1011 NOSIG

EXPIRED METARs :
  • 300600Z AUTO 28014KT 9999 NCD 16/07 Q1011 NOSIG
  • 300530Z AUTO 28012KT 9999 NCD 15/07 Q1011 NOSIG
  • 300500Z AUTO 28009KT 9999 SCT067 14/08 Q1011 NOSIG
  • 300430Z AUTO 27007KT 9999 NCD 13/08 Q1011 NOSIG
  • 300400Z AUTO 27008KT 9999 NCD 13/08 Q1011 NOSIG

TAF TAF LBGO
Valid from the 30 at 06:00 until the 01 at 06:00 UTC


300500Z 3006/0106 27010KT 9999 SCT050
TEMPO 3007/3015 27020G32KT
TEMPO 0100/0104 RA SCT030 BKN050



MET'MAP, your aeronautical weather chart ! - Copyright ORBIFLY December 2007 - Disclaimer

ORBIFLY MET'MAP TEAM :

Programming & Development : Alexandra Zaïnal
Concept & original design : Baudouin d'Aumeries
Assistance for programming : Marc-Olivier Méhu
Technical & hardware support : Manuel Goepfert

Contact : metmap@orbifly.com




SOURCES & CREDITS :

   NOAA